createdAt,value
2023-01-23T00:00:21.856Z,1.17
2023-01-23T00:02:50.931Z,1.20
2023-01-23T00:05:20.059Z,1.37
2023-01-23T00:07:49.101Z,1.47
2023-01-23T00:10:18.892Z,1.23
2023-01-23T00:12:49.943Z,1.63
2023-01-23T00:15:19.117Z,1.40
2023-01-23T00:17:48.389Z,1.37
2023-01-23T00:20:18.007Z,1.37
2023-01-23T00:22:47.164Z,1.00
2023-01-23T00:25:16.318Z,1.10
2023-01-23T00:27:45.341Z,1.17
2023-01-23T00:30:16.202Z,1.50
2023-01-23T00:32:45.335Z,1.27
2023-01-23T00:35:14.390Z,1.20
2023-01-23T00:37:43.558Z,1.00
2023-01-23T00:40:14.272Z,0.83
2023-01-23T00:42:43.307Z,1.00
2023-01-23T00:45:12.874Z,1.03
2023-01-23T00:47:43.624Z,1.00
2023-01-23T00:50:14.647Z,1.00
2023-01-23T00:52:43.640Z,0.90
2023-01-23T00:55:12.685Z,1.20
2023-01-23T00:57:41.742Z,0.90
2023-01-23T01:00:12.214Z,0.77
2023-01-23T01:02:41.289Z,1.00
2023-01-23T01:05:11.967Z,0.97
2023-01-23T01:07:41.084Z,0.90
2023-01-23T01:10:11.526Z,0.70
2023-01-23T01:12:40.614Z,1.10
2023-01-23T01:15:11.471Z,0.97
2023-01-23T01:17:40.896Z,0.97
2023-01-23T01:20:12.610Z,1.13
2023-01-23T01:22:41.745Z,1.00
2023-01-23T01:25:11.468Z,1.00
2023-01-23T01:27:40.663Z,1.13
2023-01-23T01:30:10.712Z,1.33
2023-01-23T01:32:40.671Z,1.50
2023-01-23T01:35:12.725Z,1.40
2023-01-23T01:37:43.016Z,1.50
2023-01-23T01:40:16.681Z,1.50
2023-01-23T01:42:48.730Z,1.90
2023-01-23T01:45:55.340Z,1.27
2023-01-23T01:48:28.081Z,1.80
2023-01-23T01:51:00.516Z,1.50
2023-01-23T01:53:32.137Z,1.90
2023-01-23T01:56:02.154Z,1.90
2023-01-23T01:58:31.979Z,1.60
2023-01-23T02:01:01.162Z,2.20
2023-01-23T02:03:30.515Z,1.93
2023-01-23T02:06:01.257Z,2.27
2023-01-23T02:08:36.597Z,2.37
2023-01-23T02:11:07.200Z,1.63
2023-01-23T02:13:39.291Z,1.83
2023-01-23T02:16:11.123Z,2.07
2023-01-23T02:18:44.587Z,1.93
2023-01-23T02:21:16.958Z,2.20
2023-01-23T02:23:57.749Z,2.20
2023-01-23T02:26:32.982Z,2.13
2023-01-23T02:29:02.290Z,1.63
2023-01-23T02:31:37.363Z,1.90
2023-01-23T02:34:07.888Z,2.20
2023-01-23T02:36:37.141Z,2.07
2023-01-23T02:39:11.179Z,2.23
2023-01-23T02:41:44.303Z,2.07
2023-01-23T02:44:17.343Z,2.13
2023-01-23T02:46:51.399Z,2.07
2023-01-23T02:49:21.838Z,2.07
2023-01-23T02:51:51.912Z,2.20
2023-01-23T02:54:21.543Z,2.30
2023-01-23T02:56:52.205Z,2.00
2023-01-23T02:59:41.010Z,2.40
2023-01-23T03:02:10.919Z,2.47
2023-01-23T03:04:39.965Z,2.20
2023-01-23T03:07:09.199Z,2.07
2023-01-23T03:09:38.276Z,2.07
2023-01-23T03:12:09.201Z,2.20
2023-01-23T03:14:39.308Z,2.30
2023-01-23T03:17:11.011Z,1.87
2023-01-23T03:19:40.140Z,2.77
2023-01-23T03:22:09.345Z,1.90
2023-01-23T03:24:39.055Z,2.37
2023-01-23T03:27:09.506Z,1.57
2023-01-23T03:30:03.777Z,1.93
2023-01-23T03:32:32.838Z,1.90
2023-01-23T03:35:02.068Z,1.80
2023-01-23T03:37:31.214Z,1.80
2023-01-23T03:40:18.389Z,1.93
2023-01-23T03:42:48.980Z,1.70
2023-01-23T03:45:25.519Z,1.70
2023-01-23T03:47:54.574Z,1.63
2023-01-23T03:50:23.775Z,1.67
2023-01-23T03:52:52.827Z,1.30
2023-01-23T03:55:22.743Z,1.43
2023-01-23T03:57:53.543Z,1.60
2023-01-23T04:00:31.666Z,1.30
2023-01-23T04:03:06.004Z,1.43
2023-01-23T04:05:35.635Z,1.90
2023-01-23T04:08:05.117Z,2.07
2023-01-23T04:10:34.325Z,1.60
2023-01-23T04:13:09.013Z,2.03
2023-01-23T04:15:38.261Z,2.27
2023-01-23T04:18:09.052Z,2.20
2023-01-23T04:20:40.473Z,2.07
2023-01-23T04:23:09.602Z,2.50
2023-01-23T04:25:39.722Z,2.03
2023-01-23T04:28:15.658Z,2.97
2023-01-23T04:30:46.330Z,2.43
2023-01-23T04:33:23.172Z,2.70
2023-01-23T04:35:54.832Z,3.23
2023-01-23T04:38:24.285Z,2.50
2023-01-23T04:40:54.469Z,2.37
2023-01-23T04:43:25.323Z,2.27
2023-01-23T04:45:56.738Z,2.57
2023-01-23T04:48:48.895Z,2.63
2023-01-23T04:51:18.427Z,2.70
2023-01-23T04:53:48.028Z,2.77
2023-01-23T04:56:17.043Z,2.87
2023-01-23T04:58:49.758Z,2.83
2023-01-23T05:01:23.134Z,3.00
2023-01-23T05:03:55.110Z,3.10
2023-01-23T05:06:24.699Z,3.17
2023-01-23T05:08:56.949Z,2.77
2023-01-23T05:11:35.361Z,3.20
2023-01-23T05:14:06.850Z,3.20
2023-01-23T05:16:36.352Z,3.00
2023-01-23T05:19:20.808Z,3.57
2023-01-23T05:21:50.021Z,3.27
2023-01-23T05:24:22.551Z,3.40
2023-01-23T05:26:52.161Z,3.20
2023-01-23T05:29:23.711Z,2.73
2023-01-23T05:32:02.534Z,3.43
2023-01-23T05:34:54.426Z,3.57
2023-01-23T05:37:26.326Z,2.97
2023-01-23T05:39:59.652Z,2.97
2023-01-23T05:42:41.278Z,3.40
2023-01-23T05:45:37.243Z,3.57
2023-01-23T05:48:12.621Z,3.37
2023-01-23T05:50:42.214Z,2.87
2023-01-23T05:53:11.273Z,3.13
2023-01-23T05:55:40.629Z,3.10
2023-01-23T05:58:11.260Z,3.10
2023-01-23T06:00:59.166Z,3.30
2023-01-23T06:03:47.634Z,3.63
2023-01-23T06:06:35.959Z,3.83
2023-01-23T06:09:05.519Z,3.37
2023-01-23T06:11:35.245Z,3.60
2023-01-23T06:14:05.336Z,3.63
2023-01-23T06:16:36.311Z,3.33
2023-01-23T06:19:07.244Z,3.97
2023-01-23T06:21:39.022Z,3.70
2023-01-23T06:24:09.117Z,3.50
2023-01-23T06:26:38.343Z,3.57
2023-01-23T06:29:08.054Z,3.50
2023-01-23T06:31:39.301Z,3.30
2023-01-23T06:34:08.757Z,3.37
2023-01-23T06:36:46.324Z,4.07
2023-01-23T06:39:16.170Z,2.83
2023-01-23T06:41:45.829Z,3.77
2023-01-23T06:44:21.244Z,3.67
2023-01-23T06:46:53.683Z,3.77
2023-01-23T06:49:25.548Z,3.97
2023-01-23T06:51:55.171Z,4.07
2023-01-23T06:54:26.746Z,3.73
2023-01-23T06:57:01.815Z,3.83
2023-01-23T06:59:32.192Z,4.00
2023-01-23T07:02:03.418Z,3.83
2023-01-23T07:04:40.790Z,3.93
2023-01-23T07:07:09.897Z,4.23
2023-01-23T07:09:38.980Z,3.43
2023-01-23T07:12:13.037Z,3.90
2023-01-23T07:14:42.096Z,3.33
2023-01-23T07:17:14.905Z,4.03
2023-01-23T07:19:44.081Z,3.77
2023-01-23T07:22:19.487Z,4.40
2023-01-23T07:24:48.726Z,4.00
2023-01-23T07:27:17.980Z,4.40
2023-01-23T07:29:47.348Z,4.27
2023-01-23T07:32:17.967Z,4.10
2023-01-23T07:34:46.982Z,4.27
2023-01-23T07:37:16.209Z,3.63
2023-01-23T07:39:45.473Z,4.10
2023-01-23T07:42:14.473Z,3.93
2023-01-23T07:44:44.303Z,3.90
2023-01-23T07:47:13.384Z,4.47
2023-01-23T07:49:44.029Z,4.93
2023-01-23T07:52:13.048Z,4.07
2023-01-23T07:54:42.170Z,4.20
2023-01-23T07:57:11.244Z,4.30
2023-01-23T07:59:40.411Z,4.47
2023-01-23T08:02:10.943Z,4.83
2023-01-23T08:04:40.416Z,4.67
2023-01-23T08:07:10.821Z,4.97
2023-01-23T08:09:40.412Z,5.00
2023-01-23T08:12:09.488Z,4.33
2023-01-23T08:14:39.216Z,4.10
2023-01-23T08:17:08.279Z,4.53
2023-01-23T08:19:37.288Z,5.00
2023-01-23T08:22:06.560Z,4.47
2023-01-23T08:24:37.013Z,4.03
2023-01-23T08:27:06.163Z,4.37
2023-01-23T08:29:35.331Z,4.30
2023-01-23T08:32:04.507Z,4.53
2023-01-23T08:34:33.681Z,4.63
2023-01-23T08:37:02.843Z,4.40
2023-01-23T08:39:31.879Z,4.80
2023-01-23T08:42:02.288Z,4.00
2023-01-23T08:44:34.122Z,3.97
2023-01-23T08:47:03.427Z,4.37
2023-01-23T08:49:32.544Z,4.53
2023-01-23T08:52:01.709Z,4.37
2023-01-23T08:54:30.920Z,5.90
2023-01-23T08:57:01.592Z,4.87
2023-01-23T08:59:30.783Z,4.67
2023-01-23T09:01:59.918Z,4.93
2023-01-23T09:04:29.146Z,5.23
2023-01-23T09:06:58.161Z,4.20
2023-01-23T09:09:27.209Z,4.70
2023-01-23T09:11:56.552Z,5.20
2023-01-23T09:14:26.977Z,5.20
2023-01-23T09:16:56.150Z,4.80
2023-01-23T09:19:25.230Z,4.67
2023-01-23T09:21:56.910Z,5.00
2023-01-23T09:24:25.932Z,4.40
2023-01-23T09:26:54.983Z,4.53
2023-01-23T09:29:24.123Z,4.43
2023-01-23T09:31:54.605Z,4.23
2023-01-23T09:34:23.712Z,3.73
2023-01-23T09:36:53.349Z,4.17
2023-01-23T09:39:22.448Z,4.67
2023-01-23T09:41:51.497Z,4.43
2023-01-23T09:44:23.750Z,4.67
2023-01-23T09:46:57.746Z,4.23
2023-01-23T09:49:35.874Z,4.40
2023-01-23T09:52:11.537Z,4.60
2023-01-23T09:54:44.805Z,4.27
2023-01-23T09:57:17.342Z,4.63
2023-01-23T09:59:59.886Z,4.77
2023-01-23T10:02:31.416Z,4.70
2023-01-23T10:05:02.848Z,4.93
2023-01-23T10:07:54.331Z,5.00
2023-01-23T10:10:55.903Z,4.30
2023-01-23T10:13:37.575Z,4.70
2023-01-23T10:16:22.921Z,4.70
2023-01-23T10:19:03.755Z,4.37
2023-01-23T10:21:39.979Z,4.50
2023-01-23T10:24:40.069Z,4.33
2023-01-23T10:27:19.584Z,4.27
2023-01-23T10:29:53.439Z,4.67
2023-01-23T10:32:27.740Z,4.83
2023-01-23T10:35:03.401Z,4.77
2023-01-23T10:37:44.300Z,4.97
2023-01-23T10:40:15.564Z,5.10
2023-01-23T10:42:44.588Z,4.70
2023-01-23T10:45:20.349Z,4.20
2023-01-23T10:47:55.189Z,4.80
2023-01-23T10:50:39.145Z,4.77
2023-01-23T10:53:17.607Z,4.80
2023-01-23T10:55:47.499Z,4.70
2023-01-23T10:58:30.710Z,5.03
2023-01-23T11:01:00.018Z,5.20
2023-01-23T11:03:32.539Z,5.07
2023-01-23T11:06:06.184Z,5.77
2023-01-23T11:08:37.219Z,4.70
2023-01-23T11:11:24.272Z,5.27
2023-01-23T11:14:06.408Z,5.27
2023-01-23T11:16:35.957Z,5.33
2023-01-23T11:19:13.438Z,5.47
2023-01-23T11:21:54.202Z,4.90
2023-01-23T11:24:39.109Z,5.13
2023-01-23T11:27:20.342Z,5.97
2023-01-23T11:30:32.268Z,5.70
2023-01-23T11:33:10.012Z,5.70
2023-01-23T11:36:00.617Z,5.70
2023-01-23T11:38:37.696Z,4.70
2023-01-23T11:41:12.482Z,4.70
2023-01-23T11:43:42.509Z,5.10
2023-01-23T11:46:31.357Z,5.07
2023-01-23T11:49:18.667Z,5.27
2023-01-23T11:51:51.885Z,5.33
2023-01-23T11:54:47.454Z,5.30
2023-01-23T11:57:25.433Z,4.87
2023-01-23T12:00:21.760Z,5.27
2023-01-23T12:03:18.015Z,5.30
2023-01-23T12:09:03.619Z,5.47
2023-01-23T12:11:40.629Z,5.57
2023-01-23T12:14:17.548Z,5.23
2023-01-23T12:17:13.590Z,4.90
2023-01-23T12:20:01.966Z,5.57
2023-01-23T12:22:44.520Z,4.97
2023-01-23T12:25:27.426Z,5.23
2023-01-23T12:28:09.844Z,5.17
2023-01-23T12:30:56.493Z,5.60
2023-01-23T12:33:51.437Z,5.10
2023-01-23T12:37:05.699Z,5.43
2023-01-23T12:39:53.589Z,4.60
2023-01-23T12:42:26.844Z,5.80
2023-01-23T12:45:02.639Z,5.33
2023-01-23T12:47:35.476Z,5.47
2023-01-23T12:50:15.299Z,4.50
2023-01-23T12:52:50.080Z,5.23
2023-01-23T12:55:24.002Z,5.50
2023-01-23T12:58:08.320Z,5.13
2023-01-23T13:00:55.061Z,5.57
2023-01-23T13:03:45.913Z,4.83
2023-01-23T13:06:34.725Z,5.20
2023-01-23T13:09:18.352Z,4.87
2023-01-23T13:12:21.802Z,5.43
2023-01-23T13:15:12.502Z,5.27
2023-01-23T13:17:47.832Z,5.90
2023-01-23T13:20:44.216Z,4.87
2023-01-23T13:23:24.994Z,5.70
2023-01-23T13:26:28.912Z,5.90
2023-01-23T13:29:02.011Z,5.37
2023-01-23T13:31:45.382Z,5.60
2023-01-23T13:34:38.478Z,5.73
2023-01-23T13:37:55.283Z,6.60
2023-01-23T13:40:25.526Z,5.97
2023-01-23T13:42:54.625Z,5.27
2023-01-23T13:45:32.158Z,6.27
2023-01-23T14:20:39.790Z,6.53
2023-01-23T14:23:21.570Z,6.17
2023-01-23T14:25:52.214Z,6.17
2023-01-23T14:28:21.468Z,6.07
2023-01-23T14:30:59.552Z,6.93
2023-01-23T14:33:29.803Z,6.87
2023-01-23T14:35:58.845Z,6.87
2023-01-23T14:38:35.191Z,5.67
2023-01-23T14:41:09.208Z,6.87
2023-01-23T14:43:39.208Z,7.20
2023-01-23T14:46:15.240Z,5.77
2023-01-23T14:48:46.157Z,6.77
2023-01-23T14:51:22.226Z,6.23
2023-01-23T14:53:59.489Z,6.03
2023-01-23T14:56:32.907Z,6.43
2023-01-23T14:59:05.095Z,6.07
2023-01-23T15:01:35.898Z,6.63
2023-01-23T15:04:07.569Z,6.37
2023-01-23T15:06:37.792Z,6.57
2023-01-23T15:09:13.463Z,6.97
2023-01-23T15:11:44.742Z,6.90
2023-01-23T15:14:35.895Z,7.43
2023-01-23T15:17:07.360Z,7.10
2023-01-23T15:19:38.662Z,7.00
2023-01-23T15:22:09.611Z,7.20
2023-01-23T15:24:38.645Z,7.20
2023-01-23T15:27:25.893Z,6.80
2023-01-23T15:30:36.066Z,7.23
2023-01-23T15:33:21.413Z,5.87
2023-01-23T15:35:50.555Z,7.70
2023-01-23T15:38:19.917Z,7.63
2023-01-23T15:40:48.970Z,7.43
2023-01-23T15:43:20.648Z,7.83
2023-01-23T15:45:49.743Z,8.27
2023-01-23T15:48:18.922Z,7.43
2023-01-23T15:50:48.047Z,7.63
2023-01-23T15:53:17.437Z,7.83
2023-01-23T15:55:47.333Z,7.30
2023-01-23T15:58:17.695Z,7.47
2023-01-23T16:00:46.770Z,7.10
2023-01-23T16:03:17.192Z,7.50
2023-01-23T16:05:46.236Z,7.27
2023-01-23T16:08:23.056Z,7.37
2023-01-23T16:10:52.465Z,7.60
2023-01-23T16:13:23.024Z,7.23
2023-01-23T16:15:52.648Z,7.53
2023-01-23T16:18:23.625Z,8.70
2023-01-23T16:20:52.783Z,7.73
2023-01-23T16:23:24.653Z,8.63
2023-01-23T16:25:54.430Z,8.23
2023-01-23T16:28:26.904Z,7.67
2023-01-23T16:30:56.019Z,7.90
2023-01-23T16:33:25.365Z,8.63
2023-01-23T16:35:55.519Z,8.27
2023-01-23T16:38:27.906Z,8.03
2023-01-23T16:40:59.577Z,8.23
2023-01-23T16:43:30.086Z,7.17
2023-01-23T16:45:59.360Z,7.57
2023-01-23T16:48:28.967Z,8.40
2023-01-23T16:51:02.302Z,7.47
2023-01-23T16:53:34.070Z,8.77
2023-01-23T16:56:05.269Z,8.17
2023-01-23T16:58:39.794Z,8.13
2023-01-23T17:01:15.054Z,7.53
2023-01-23T17:03:45.733Z,8.00
2023-01-23T17:06:18.105Z,8.03
2023-01-23T17:08:52.572Z,8.27
2023-01-23T17:11:28.228Z,8.90
2023-01-23T17:14:02.895Z,7.30
2023-01-23T17:16:32.383Z,7.30
2023-01-23T17:19:07.679Z,7.93
2023-01-23T17:21:37.123Z,7.87
2023-01-23T17:24:07.003Z,8.47
2023-01-23T17:26:36.601Z,8.57
2023-01-23T17:29:07.164Z,7.93
2023-01-23T17:31:37.150Z,8.03
2023-01-23T17:34:07.463Z,7.90
2023-01-23T17:36:37.645Z,8.13
2023-01-23T17:39:09.130Z,7.60
2023-01-23T17:41:38.754Z,7.27
2023-01-23T17:44:10.231Z,7.80
2023-01-23T17:46:39.722Z,8.40
2023-01-23T17:49:28.329Z,8.33
2023-01-23T17:51:58.864Z,16.80
2023-01-23T17:54:28.540Z,13.30
2023-01-23T17:56:57.624Z,8.97
2023-01-23T17:59:28.036Z,8.67
2023-01-23T18:01:58.450Z,9.60
2023-01-23T18:04:27.582Z,8.67
2023-01-23T18:06:56.654Z,8.57
2023-01-23T18:09:25.742Z,8.67
2023-01-23T18:11:55.718Z,8.00
2023-01-23T18:14:43.589Z,8.23
2023-01-23T18:17:23.391Z,8.23
2023-01-23T18:19:54.063Z,8.27
2023-01-23T18:22:23.546Z,8.43
2023-01-23T18:24:53.466Z,9.40
2023-01-23T18:27:25.287Z,8.37
2023-01-23T18:30:15.946Z,8.47
2023-01-23T18:33:17.433Z,8.93
2023-01-23T18:36:06.443Z,9.57
2023-01-23T18:38:43.847Z,8.03
2023-01-23T18:41:22.102Z,7.93
2023-01-23T18:43:56.808Z,8.53
2023-01-23T18:46:28.004Z,8.67
2023-01-23T18:48:57.558Z,8.50
2023-01-23T18:51:38.567Z,10.13
2023-01-23T18:54:20.256Z,9.57
2023-01-23T18:57:03.881Z,10.30
2023-01-23T18:59:41.940Z,8.57
2023-01-23T19:02:24.612Z,8.93
2023-01-23T19:05:22.603Z,8.90
2023-01-23T19:07:52.325Z,8.63
2023-01-23T19:10:28.044Z,8.97
2023-01-23T19:13:07.630Z,9.10
2023-01-23T19:15:44.096Z,9.33
2023-01-23T19:18:39.537Z,8.93
2023-01-23T19:21:20.345Z,9.53
2023-01-23T19:23:57.119Z,8.57
2023-01-23T19:26:28.261Z,9.27
2023-01-23T19:29:08.429Z,9.17
2023-01-23T19:32:02.923Z,9.43
2023-01-23T19:34:35.285Z,7.70
2023-01-23T19:37:05.080Z,9.03
2023-01-23T19:39:34.223Z,8.60
2023-01-23T19:42:03.772Z,8.97
2023-01-23T19:44:33.604Z,9.77
2023-01-23T19:47:03.422Z,9.73
2023-01-23T19:49:33.903Z,9.43
2023-01-23T19:52:03.488Z,9.77
2023-01-23T19:54:32.545Z,9.07
2023-01-23T19:57:01.601Z,9.43
2023-01-23T19:59:30.676Z,10.00
2023-01-23T20:02:00.170Z,9.87
2023-01-23T20:04:29.555Z,10.10
2023-01-23T20:06:59.996Z,8.87
2023-01-23T20:09:29.227Z,9.07
2023-01-23T20:11:58.680Z,9.07
2023-01-23T20:14:29.470Z,8.53
2023-01-23T20:16:58.796Z,9.90
2023-01-23T20:19:27.954Z,9.90
2023-01-23T20:21:57.108Z,8.87
2023-01-23T20:24:27.495Z,9.70
2023-01-23T20:26:56.562Z,9.63
2023-01-23T20:29:25.618Z,9.80
2023-01-23T20:31:55.379Z,10.50
2023-01-23T20:34:27.026Z,9.67
2023-01-23T20:36:56.318Z,10.30
2023-01-23T20:39:26.943Z,9.70
2023-01-23T20:41:56.500Z,9.27
2023-01-23T20:44:25.953Z,9.00
2023-01-23T20:46:54.995Z,9.80
2023-01-23T20:49:24.216Z,11.60
2023-01-23T20:51:53.276Z,9.67
2023-01-23T20:54:21.370Z,10.20
2023-01-23T20:56:51.955Z,10.27
2023-01-23T20:59:21.460Z,10.17
2023-01-23T21:02:08.809Z,11.00
2023-01-23T21:04:39.619Z,9.63
2023-01-23T21:07:08.650Z,9.17
2023-01-23T21:09:37.766Z,10.10
2023-01-23T21:12:08.691Z,10.33
2023-01-23T21:14:37.761Z,10.37
2023-01-23T21:17:08.396Z,9.87
2023-01-23T21:19:38.885Z,11.77
2023-01-23T21:22:08.649Z,10.37
2023-01-23T21:24:37.935Z,10.43
2023-01-23T21:27:08.995Z,10.97
2023-01-23T21:29:39.590Z,11.13
2023-01-23T21:32:08.601Z,10.83
2023-01-23T21:34:38.423Z,11.10
2023-01-23T21:37:10.787Z,9.60
2023-01-23T21:39:39.915Z,10.37
2023-01-23T21:42:10.651Z,9.70
2023-01-23T21:44:39.693Z,9.90
2023-01-23T21:47:10.390Z,10.43
2023-01-23T21:49:39.477Z,9.90
2023-01-23T21:52:08.516Z,9.77
2023-01-23T21:54:38.190Z,8.30
2023-01-23T21:57:07.231Z,9.17
2023-01-23T21:59:37.678Z,10.63
2023-01-23T22:02:05.783Z,10.70
2023-01-23T22:04:34.958Z,10.90
2023-01-23T22:07:04.172Z,10.90
2023-01-23T22:09:33.330Z,11.07
2023-01-23T22:12:02.407Z,10.43
2023-01-23T22:14:32.236Z,10.80
2023-01-23T22:17:02.781Z,10.33
2023-01-23T22:19:31.827Z,9.77
2023-01-23T22:22:00.900Z,9.40
2023-01-23T22:24:30.589Z,11.27
2023-01-23T22:26:59.941Z,9.13
2023-01-23T22:29:29.061Z,10.27
2023-01-23T22:31:58.434Z,10.37
2023-01-23T22:34:29.319Z,10.53
2023-01-23T22:36:58.427Z,10.43
2023-01-23T22:39:27.466Z,10.87
2023-01-23T22:41:57.630Z,9.87
2023-01-23T22:44:27.144Z,10.23
2023-01-23T22:46:56.241Z,10.90
2023-01-23T22:49:25.632Z,11.23
2023-01-23T22:51:56.009Z,10.27
2023-01-23T22:54:25.052Z,10.10
2023-01-23T22:56:54.099Z,11.37
2023-01-23T22:59:23.116Z,11.20
2023-01-23T23:01:52.152Z,11.03
2023-01-23T23:04:22.259Z,10.90
2023-01-23T23:06:51.287Z,9.43
2023-01-23T23:09:21.708Z,11.27
2023-01-23T23:11:51.736Z,9.80
2023-01-23T23:14:20.832Z,11.00
2023-01-23T23:16:49.856Z,10.40
2023-01-23T23:19:18.870Z,10.17
2023-01-23T23:21:47.929Z,10.60
2023-01-23T23:24:17.083Z,10.00
2023-01-23T23:26:49.108Z,9.83
2023-01-23T23:29:18.383Z,9.83
2023-01-23T23:31:51.467Z,9.93
2023-01-23T23:34:20.897Z,9.80
2023-01-23T23:36:49.946Z,9.60
2023-01-23T23:39:19.041Z,9.50
2023-01-23T23:41:49.390Z,10.07
2023-01-23T23:44:19.077Z,10.13
2023-01-23T23:46:48.309Z,9.97
2023-01-23T23:49:17.334Z,9.37
2023-01-23T23:51:46.366Z,9.70
2023-01-23T23:54:15.415Z,10.00
2023-01-23T23:56:44.554Z,9.07
2023-01-23T23:59:17.154Z,10.83
